Time;durP1;ratioP1;P1;durP2;ratioP2;P2;SDS_P1;SDS_P2;PMS_P1;PMS_P2;Temp;Humidity;BMP_temperature;BMP_pressure;BME280_temperature;BME280_humidity;BME280_pressure;Samples;Min_cycle;Max_cycle;Signal;HPM_P1;HPM_P2
2023/10/20 00:00:15;;;;;;;3.33;2.10;;;;;;;15.84;100.00;96675.13;334764;28;18411;-76
2023/10/20 00:00:27;;;;;;;3.13;2.00;;;;;;;15.75;100.00;96673.41;336228;28;17484;-76
2023/10/20 00:00:39;;;;;;;2.75;1.95;;;;;;;15.77;100.00;96674.09;338977;28;4555;-76
2023/10/20 00:00:51;;;;;;;2.55;1.90;;;;;;;15.77;100.00;96676.72;337600;28;18126;-76
2023/10/20 00:01:03;;;;;;;3.33;2.05;;;;;;;15.83;100.00;96670.84;335865;28;18238;-76
2023/10/20 00:01:15;;;;;;;2.80;1.73;;;;;;;15.81;100.00;96667.56;337986;28;4783;-76
2023/10/20 00:01:28;;;;;;;4.13;2.08;;;;;;;15.78;100.00;96667.88;337181;28;18001;-76
2023/10/20 00:01:40;;;;;;;4.70;2.33;;;;;;;15.82;100.00;96669.22;340315;28;5299;-76
2023/10/20 00:01:52;;;;;;;4.63;2.33;;;;;;;15.82;100.00;96669.22;335973;28;18085;-76
2023/10/20 00:02:04;;;;;;;2.42;1.98;;;;;;;15.84;100.00;96672.50;339902;28;5640;-76
2023/10/20 00:02:16;;;;;;;2.78;1.88;;;;;;;15.87;100.00;96673.97;338505;28;16311;-76
2023/10/20 00:02:28;;;;;;;3.38;1.95;;;;;;;15.91;100.00;96672.69;332560;28;18351;-76
2023/10/20 00:02:42;;;;;;;3.58;2.08;;;;;;;15.94;100.00;96665.34;340228;28;4672;-76
2023/10/20 00:02:54;;;;;;;3.20;1.98;;;;;;;15.96;100.00;96671.25;336175;28;18690;-76
2023/10/20 00:03:06;;;;;;;3.53;1.80;;;;;;;16.01;100.00;96668.16;340200;28;4687;-76
2023/10/20 00:03:19;;;;;;;4.93;1.92;;;;;;;15.99;100.00;96664.84;336459;28;14952;-76
2023/10/20 00:03:31;;;;;;;5.15;2.00;;;;;;;16.00;100.00;96670.91;340086;28;4639;-76
2023/10/20 00:03:43;;;;;;;2.80;1.95;;;;;;;16.02;100.00;96668.97;336533;28;19213;-76
2023/10/20 00:03:55;;;;;;;2.80;1.90;;;;;;;16.04;100.00;96678.31;333903;28;4763;-76
2023/10/20 00:04:07;;;;;;;2.40;1.70;;;;;;;16.00;100.00;96671.75;336572;28;12945;-76
2023/10/20 00:04:19;;;;;;;2.33;1.63;;;;;;;16.01;100.00;96669.94;339314;28;5336;-76
2023/10/20 00:04:31;;;;;;;2.22;1.65;;;;;;;16.00;100.00;96663.91;339596;28;4746;-76
2023/10/20 00:04:44;;;;;;;2.40;1.70;;;;;;;16.02;100.00;96663.72;337624;28;17990;-76
2023/10/20 00:04:56;;;;;;;2.72;2.00;;;;;;;16.07;100.00;96661.47;339641;28;4698;-76
2023/10/20 00:05:09;;;;;;;2.65;2.03;;;;;;;16.04;100.00;96661.78;337209;28;17939;-76
2023/10/20 00:05:21;;;;;;;2.85;2.00;;;;;;;16.04;100.00;96656.56;337863;28;5006;-76
2023/10/20 00:05:34;;;;;;;4.00;2.10;;;;;;;15.97;100.00;96662.41;336575;28;18036;-76
2023/10/20 00:05:46;;;;;;;3.37;1.90;;;;;;;15.93;100.00;96661.06;339660;28;4602;-76
2023/10/20 00:05:58;;;;;;;2.53;1.60;;;;;;;15.90;100.00;96666.63;337291;28;12828;-76
2023/10/20 00:06:10;;;;;;;2.72;1.88;;;;;;;15.86;100.00;96654.84;339937;28;5273;-76
2023/10/20 00:06:22;;;;;;;3.10;1.90;;;;;;;15.89;100.00;96662.34;339594;28;4613;-76
2023/10/20 00:06:34;;;;;;;3.35;1.73;;;;;;;15.89;100.00;96664.97;336981;28;18025;-76
2023/10/20 00:06:46;;;;;;;2.58;1.52;;;;;;;15.82;100.00;96669.22;336589;28;6267;-76
2023/10/20 00:06:59;;;;;;;2.28;1.70;;;;;;;15.83;100.00;96670.84;335575;28;18213;-76
2023/10/20 00:07:11;;;;;;;2.60;1.80;;;;;;;15.81;100.00;96662.31;338596;28;5250;-77
2023/10/20 00:07:23;;;;;;;4.30;2.00;;;;;;;15.81;100.00;96661.50;336339;28;17738;-77
2023/10/20 00:07:38;;;;;;;4.10;1.90;;;;;;;15.78;100.00;96667.88;339963;28;5473;-77
2023/10/20 00:07:50;;;;;;;3.05;1.90;;;;;;;15.76;100.00;96669.84;337128;28;16443;-76
2023/10/20 00:08:03;;;;;;;3.20;1.90;;;;;;;15.80;100.00;96671.16;338921;28;5303;-76
2023/10/20 00:08:15;;;;;;;4.60;1.85;;;;;;;15.81;100.00;96672.78;336743;28;19154;-76
2023/10/20 00:08:27;;;;;;;4.45;1.77;;;;;;;15.85;100.00;96666.28;335500;28;5872;-76
2023/10/20 00:08:40;;;;;;;5.30;1.88;;;;;;;15.80;100.00;96676.41;336217;28;18293;-76
2023/10/20 00:08:52;;;;;;;3.05;1.80;;;;;;;15.85;100.00;96673.31;339926;28;4696;-76
2023/10/20 00:09:04;;;;;;;3.13;1.80;;;;;;;15.91;100.00;96668.25;335781;28;4688;-76
2023/10/20 00:09:16;;;;;;;2.40;1.70;;;;;;;15.95;100.00;96669.59;339156;28;5212;-76
2023/10/20 00:09:28;;;;;;;2.58;1.83;;;;;;;15.94;100.00;96662.72;338183;28;4628;-76
2023/10/20 00:09:41;;;;;;;2.53;1.80;;;;;;;15.90;100.00;96671.06;337257;28;17631;-76
2023/10/20 00:09:54;;;;;;;3.00;1.88;;;;;;;15.84;100.00;96675.13;341434;28;4548;-76
2023/10/20 00:10:09;;;;;;;3.17;1.95;;;;;;;15.82;100.00;96669.22;337954;28;18083;-76
2023/10/20 00:10:21;;;;;;;2.63;1.90;;;;;;;15.80;100.00;96671.16;334856;28;17957;-76
2023/10/20 00:10:36;;;;;;;2.28;1.60;;;;;;;15.75;100.00;96674.25;339535;28;7296;-76
2023/10/20 00:10:49;;;;;;;2.45;1.67;;;;;;;15.72;100.00;96669.31;336298;28;17735;-76
2023/10/20 00:11:04;;;;;;;2.65;1.80;;;;;;;15.72;100.00;96669.31;335223;28;18784;-76
2023/10/20 00:11:17;;;;;;;3.55;1.73;;;;;;;15.74;100.00;96666.56;331625;28;17769;-76
2023/10/20 00:11:29;;;;;;;4.65;1.80;;;;;;;15.63;100.00;96666.78;336035;28;14316;-76
2023/10/20 00:11:43;;;;;;;3.47;1.83;;;;;;;15.67;100.00;96670.72;339793;28;4636;-76
2023/10/20 00:11:55;;;;;;;3.58;2.00;;;;;;;15.70;100.00;96662.56;337105;28;13163;-77
2023/10/20 00:12:07;;;;;;;3.63;2.00;;;;;;;15.62;100.00;96667.78;338460;28;4959;-76
2023/10/20 00:12:19;;;;;;;3.40;2.03;;;;;;;15.69;100.00;96668.78;337023;28;5329;-76
2023/10/20 00:12:31;;;;;;;2.65;1.90;;;;;;;15.74;100.00;96661.31;337469;28;19269;-76
2023/10/20 00:12:43;;;;;;;2.50;1.75;;;;;;;15.76;100.00;96670.66;339521;28;4631;-76
2023/10/20 00:12:58;;;;;;;2.75;2.00;;;;;;;15.77;100.00;96667.06;334987;28;16938;-76
2023/10/20 00:13:10;;;;;;;3.30;2.03;;;;;;;15.81;100.00;96667.56;336017;28;16640;-76
2023/10/20 00:13:22;;;;;;;3.10;1.70;;;;;;;15.88;100.00;96670.41;338573;28;5429;-76
2023/10/20 00:13:34;;;;;;;2.88;1.60;;;;;;;15.86;100.00;96660.06;337061;28;4739;-76
2023/10/20 00:13:46;;;;;;;2.67;1.65;;;;;;;15.84;100.00;96663.81;333590;28;18321;-76
2023/10/20 00:14:00;;;;;;;2.20;1.58;;;;;;;15.78;100.00;96663.47;335796;28;5313;-76
2023/10/20 00:14:12;;;;;;;2.63;1.60;;;;;;;15.76;100.00;96665.41;330160;28;18375;-76
2023/10/20 00:14:25;;;;;;;3.10;1.80;;;;;;;15.80;100.00;96660.69;338741;28;4758;-76
2023/10/20 00:14:37;;;;;;;3.20;2.08;;;;;;;15.82;100.00;96661.34;334055;28;18756;-76
2023/10/20 00:14:49;;;;;;;2.53;1.98;;;;;;;15.83;100.00;96665.59;339532;28;4568;-76
2023/10/20 00:15:01;;;;;;;2.55;1.90;;;;;;;15.86;100.00;96659.25;337019;28;13274;-76
2023/10/20 00:15:17;;;;;;;2.30;1.60;;;;;;;15.86;100.00;96660.06;340472;28;4833;-76
2023/10/20 00:15:33;;;;;;;3.20;1.90;;;;;;;15.87;100.00;96656.47;330607;28;17716;-76
2023/10/20 00:15:45;;;;;;;3.10;1.80;;;;;;;15.91;100.00;96652.53;337507;28;5157;-76
2023/10/20 00:15:57;;;;;;;2.95;1.80;;;;;;;15.93;100.00;96655.00;335652;28;19340;-76
2023/10/20 00:16:10;;;;;;;3.42;2.00;;;;;;;15.87;100.00;96651.22;339122;28;4782;-76
2023/10/20 00:16:28;;;;;;;3.67;1.95;;;;;;;15.82;100.00;96657.94;335637;28;18501;-76
2023/10/20 00:16:40;;;;;;;3.92;1.67;;;;;;;15.85;100.00;96650.56;335558;28;17857;-77
2023/10/20 00:16:52;;;;;;;3.25;1.70;;;;;;;15.89;100.00;96653.69;334216;28;4697;-77
2023/10/20 00:17:04;;;;;;;2.47;1.63;;;;;;;15.92;100.00;96656.81;338301;28;4686;-77
2023/10/20 00:17:16;;;;;;;2.33;1.65;;;;;;;15.91;100.00;96657.78;332421;28;4609;-77
2023/10/20 00:17:29;;;;;;;2.72;1.80;;;;;;;15.92;100.00;96654.19;337336;28;4694;-76
2023/10/20 00:17:42;;;;;;;2.65;1.70;;;;;;;15.92;100.00;96651.59;336884;28;18041;-76
2023/10/20 00:17:54;;;;;;;2.58;1.70;;;;;;;15.90;100.00;96650.09;338082;28;4861;-77
2023/10/20 00:18:06;;;;;;;2.67;1.85;;;;;;;15.88;100.00;96650.25;335592;28;17980;-76
2023/10/20 00:18:18;;;;;;;2.45;1.80;;;;;;;15.87;100.00;96645.97;339823;28;4557;-76
2023/10/20 00:18:30;;;;;;;2.22;1.58;;;;;;;15.84;100.00;96640.25;334319;28;5344;-76
2023/10/20 00:18:42;;;;;;;2.42;1.50;;;;;;;15.84;100.00;96648.94;337602;28;18289;-76
2023/10/20 00:18:56;;;;;;;3.70;1.50;;;;;;;15.81;100.00;96648.41;341148;28;4686;-77
2023/10/20 00:19:08;;;;;;;4.05;1.50;;;;;;;15.81;100.00;96646.59;338702;28;13699;-76
2023/10/20 00:19:20;;;;;;;2.67;1.45;;;;;;;15.84;100.00;96653.34;339646;28;4717;-77
2023/10/20 00:19:32;;;;;;;1.90;1.40;;;;;;;15.86;100.00;96649.59;335436;28;14790;-77
2023/10/20 00:19:44;;;;;;;2.20;1.60;;;;;;;15.86;100.00;96659.25;336387;28;5649;-76
2023/10/20 00:19:56;;;;;;;2.70;1.70;;;;;;;15.90;100.00;96653.53;331499;29;4842;-77
2023/10/20 00:20:12;;;;;;;2.50;1.60;;;;;;;15.94;100.00;96659.28;334918;28;17662;-76
2023/10/20 00:20:24;;;;;;;2.15;1.60;;;;;;;15.95;100.00;96653.88;335788;28;18078;-76
2023/10/20 00:20:36;;;;;;;2.17;1.53;;;;;;;15.90;100.00;96656.16;336989;28;11614;-76
2023/10/20 00:20:49;;;;;;;2.40;1.52;;;;;;;15.91;100.00;96655.16;335326;28;18296;-76
2023/10/20 00:21:01;;;;;;;2.40;1.70;;;;;;;15.90;100.00;96660.59;338801;28;4755;-77
2023/10/20 00:21:13;;;;;;;2.28;1.73;;;;;;;15.91;100.00;96655.16;334953;28;19072;-76
2023/10/20 00:21:25;;;;;;;1.92;1.55;;;;;;;15.96;100.00;96658.16;333764;28;4937;-76
2023/10/20 00:21:39;;;;;;;1.60;1.50;;;;;;;15.98;100.00;96653.56;337643;28;12428;-76
2023/10/20 00:21:52;;;;;;;4.03;1.67;;;;;;;16.02;100.00;96658.47;336650;28;17328;-76
2023/10/20 00:22:04;;;;;;;4.55;1.80;;;;;;;16.01;100.00;96664.72;337256;28;18264;-76
2023/10/20 00:22:16;;;;;;;3.47;1.75;;;;;;;15.99;100.00;96659.63;337222;28;5904;-77
2023/10/20 00:22:28;;;;;;;3.00;1.80;;;;;;;15.93;100.00;96661.06;333231;28;13652;-77
2023/10/20 00:22:40;;;;;;;2.70;1.67;;;;;;;15.97;100.00;96658.97;336430;28;4581;-76
2023/10/20 00:22:52;;;;;;;3.10;1.70;;;;;;;15.98;100.00;96664.06;336025;28;4772;-77
2023/10/20 00:23:05;;;;;;;3.50;1.80;;;;;;;16.02;100.00;96658.47;333330;28;18245;-76
2023/10/20 00:23:17;;;;;;;2.45;1.52;;;;;;;15.98;100.00;96661.44;336787;28;4622;-76
2023/10/20 00:23:29;;;;;;;2.60;1.65;;;;;;;15.98;100.00;96652.75;333473;28;17989;-76
2023/10/20 00:23:41;;;;;;;2.80;1.95;;;;;;;16.04;100.00;96656.56;335840;28;5193;-76
2023/10/20 00:23:53;;;;;;;2.33;1.80;;;;;;;16.04;100.00;96652.13;335669;28;17503;-76
2023/10/20 00:24:05;;;;;;;2.35;1.73;;;;;;;16.05;100.00;96653.75;332064;28;4684;-76
2023/10/20 00:24:17;;;;;;;2.10;1.60;;;;;;;16.07;100.00;96657.03;337989;28;4652;-76
2023/10/20 00:24:29;;;;;;;2.45;1.75;;;;;;;16.05;100.00;96650.31;334871;28;18274;-76
2023/10/20 00:24:45;;;;;;;2.53;1.65;;;;;;;16.06;100.00;96654.59;339851;28;5628;-76
2023/10/20 00:24:57;;;;;;;2.30;1.52;;;;;;;16.11;100.00;96654.91;337382;28;17866;-76
2023/10/20 00:25:11;;;;;;;2.53;1.83;;;;;;;16.11;100.00;96645.25;337087;28;17600;-76
2023/10/20 00:25:23;;;;;;;2.67;1.88;;;;;;;16.14;100.00;96646.75;339024;28;9099;-77
2023/10/20 00:25:35;;;;;;;2.33;1.70;;;;;;;16.18;100.00;96648.09;337714;28;19095;-76
2023/10/20 00:25:47;;;;;;;2.35;1.70;;;;;;;16.21;100.00;96650.38;334117;28;5340;-77
2023/10/20 00:25:59;;;;;;;2.60;1.70;;;;;;;16.23;100.00;96644.97;335951;28;12795;-76
2023/10/20 00:26:11;;;;;;;2.67;1.80;;;;;;;16.25;100.00;96645.63;339098;28;5468;-77
2023/10/20 00:26:23;;;;;;;2.17;1.60;;;;;;;16.24;100.00;96644.81;336935;28;4531;-76
2023/10/20 00:26:35;;;;;;;2.22;1.65;;;;;;;16.24;100.00;96647.44;333338;28;17693;-76
2023/10/20 00:26:47;;;;;;;2.40;1.63;;;;;;;16.26;100.00;96647.25;337395;28;5074;-76
2023/10/20 00:26:59;;;;;;;2.42;1.60;;;;;;;16.26;100.00;96642.88;333073;28;19653;-77
2023/10/20 00:27:13;;;;;;;2.63;1.70;;;;;;;16.26;100.00;96637.63;335071;28;17035;-76
2023/10/20 00:27:25;;;;;;;2.22;1.50;;;;;;;16.24;100.00;96642.22;332144;28;18562;-76
2023/10/20 00:27:38;;;;;;;2.40;1.40;;;;;;;16.26;100.00;96640.25;336578;28;5419;-76
2023/10/20 00:27:50;;;;;;;2.80;1.63;;;;;;;16.26;100.00;96640.25;333699;28;18449;-76
2023/10/20 00:28:03;;;;;;;2.25;1.60;;;;;;;16.28;100.00;96640.06;336123;29;5579;-76
2023/10/20 00:28:15;;;;;;;2.28;1.63;;;;;;;16.29;100.00;96639.91;333918;28;18304;-76
2023/10/20 00:28:27;;;;;;;2.20;1.55;;;;;;;16.32;100.00;96639.59;338064;28;4625;-76
2023/10/20 00:28:39;;;;;;;1.92;1.55;;;;;;;16.33;100.00;96641.22;335790;28;5444;-77
2023/10/20 00:28:51;;;;;;;1.60;1.40;;;;;;;16.35;100.00;96644.50;337994;28;4866;-76
2023/10/20 00:29:03;;;;;;;1.50;1.40;;;;;;;16.36;100.00;96640.94;337194;28;5328;-76
2023/10/20 00:29:15;;;;;;;3.33;1.85;;;;;;;16.38;100.00;96638.97;334127;28;18242;-76
2023/10/20 00:29:28;;;;;;;3.55;2.00;;;;;;;16.36;100.00;96640.94;337415;28;4773;-77
2023/10/20 00:29:40;;;;;;;3.20;1.80;;;;;;;16.36;100.00;96646.16;336466;28;5052;-77
2023/10/20 00:29:52;;;;;;;1.80;1.60;;;;;;;16.37;100.00;96634.69;340069;28;4614;-76
2023/10/20 00:30:07;;;;;;;1.70;1.45;;;;;;;16.43;100.00;96637.66;334116;28;6131;-76
2023/10/20 00:30:19;;;;;;;2.22;1.40;;;;;;;16.43;100.00;96635.03;337479;28;4892;-76
2023/10/20 00:30:31;;;;;;;3.03;1.55;;;;;;;16.41;100.00;96632.56;333351;28;17739;-76
2023/10/20 00:30:43;;;;;;;3.08;1.80;;;;;;;16.42;100.00;96638.63;337270;28;5354;-76
2023/10/20 00:30:55;;;;;;;2.15;1.65;;;;;;;16.41;100.00;96634.38;334853;28;16266;-77
2023/10/20 00:31:07;;;;;;;1.75;1.40;;;;;;;16.41;100.00;96637.00;336154;28;5045;-76
2023/10/20 00:31:19;;;;;;;2.20;1.35;;;;;;;16.44;100.00;96641.91;332866;28;4518;-76
2023/10/20 00:31:32;;;;;;;2.10;1.42;;;;;;;16.43;100.00;96635.03;334417;28;17991;-76
2023/10/20 00:31:44;;;;;;;2.03;1.40;;;;;;;16.44;100.00;96639.28;337564;28;4561;-77
2023/10/20 00:31:56;;;;;;;1.77;1.50;;;;;;;16.44;100.00;96636.66;333453;28;19212;-76
2023/10/20 00:32:10;;;;;;;2.00;1.58;;;;;;;16.46;100.00;96629.47;337214;28;4736;-76
2023/10/20 00:32:22;;;;;;;2.08;1.58;;;;;;;16.48;100.00;96635.34;334645;28;18664;-76
2023/10/20 00:32:34;;;;;;;1.98;1.60;;;;;;;16.47;100.00;96633.75;338477;28;4587;-76
2023/10/20 00:32:46;;;;;;;2.45;1.75;;;;;;;16.47;100.00;96636.34;335939;28;18377;-77
2023/10/20 00:32:58;;;;;;;2.70;1.70;;;;;;;16.45;100.00;96640.94;332183;28;6041;-76
2023/10/20 00:33:10;;;;;;;2.75;1.80;;;;;;;16.46;100.00;96640.78;336747;28;4577;-77
2023/10/20 00:33:22;;;;;;;3.58;1.85;;;;;;;16.44;100.00;96636.66;339039;28;4512;-76
2023/10/20 00:33:35;;;;;;;5.95;1.80;;;;;;;16.45;100.00;96646.19;338887;28;4725;-76
2023/10/20 00:33:50;;;;;;;5.13;1.52;;;;;;;16.46;100.00;96639.94;336347;28;17448;-77
2023/10/20 00:34:01;;;;;;;1.80;1.45;;;;;;;16.47;100.00;96647.66;337875;28;5195;-77
2023/10/20 00:34:13;;;;;;;1.70;1.30;;;;;;;16.48;100.00;96651.09;334875;28;5200;-76
2023/10/20 00:34:25;;;;;;;2.13;1.40;;;;;;;16.46;100.00;96647.81;337902;28;5420;-76
2023/10/20 00:34:37;;;;;;;2.17;1.50;;;;;;;16.46;100.00;96651.28;340116;28;4489;-76
2023/10/20 00:34:49;;;;;;;2.28;1.60;;;;;;;16.49;100.00;96648.31;340272;28;4552;-76
2023/10/20 00:35:04;;;;;;;2.22;1.60;;;;;;;16.49;100.00;96645.69;335751;28;12547;-77
2023/10/20 00:35:16;;;;;;;2.83;1.67;;;;;;;16.48;100.00;96644.06;335537;28;17864;-77
2023/10/20 00:35:29;;;;;;;3.20;1.88;;;;;;;16.49;100.00;96639.63;340099;28;5932;-77
2023/10/20 00:35:41;;;;;;;3.75;2.00;;;;;;;16.51;100.00;96648.16;334337;28;4806;-76
2023/10/20 00:35:53;;;;;;;3.40;1.83;;;;;;;16.52;100.00;96634.91;338261;28;4704;-77
2023/10/20 00:36:06;;;;;;;2.55;1.60;;;;;;;16.52;100.00;96636.69;338685;28;5366;-76
2023/10/20 00:36:18;;;;;;;3.75;1.60;;;;;;;16.52;100.00;96639.31;335579;28;17742;-76
2023/10/20 00:36:30;;;;;;;3.97;1.60;;;;;;;16.52;100.00;96639.31;339905;28;4613;-76
2023/10/20 00:36:42;;;;;;;2.42;1.60;;;;;;;16.53;100.00;96639.16;336093;28;18013;-77
2023/10/20 00:36:54;;;;;;;1.90;1.60;;;;;;;16.55;100.00;96639.00;339865;28;4867;-76
2023/10/20 00:37:06;;;;;;;2.00;1.55;;;;;;;16.57;100.00;96632.59;339999;28;5834;-77
2023/10/20 00:37:18;;;;;;;2.05;1.52;;;;;;;16.58;100.00;96638.69;336351;28;17967;-77
2023/10/20 00:37:31;;;;;;;2.03;1.50;;;;;;;16.53;100.00;96648.81;338857;28;4708;-77
2023/10/20 00:37:43;;;;;;;2.33;1.50;;;;;;;16.54;100.00;96635.56;334836;28;18314;-76
2023/10/20 00:37:55;;;;;;;2.05;1.50;;;;;;;16.52;100.00;96644.53;340023;28;4550;-77
2023/10/20 00:38:07;;;;;;;1.92;1.50;;;;;;;16.53;100.00;96639.16;337252;28;12427;-77
2023/10/20 00:38:19;;;;;;;2.15;1.48;;;;;;;16.54;100.00;96653.06;339382;28;4539;-76
2023/10/20 00:38:31;;;;;;;2.42;1.55;;;;;;;16.55;100.00;96644.22;339425;28;4735;-77
2023/10/20 00:38:43;;;;;;;1.63;1.23;;;;;;;16.56;100.00;96641.47;336922;28;17995;-77
2023/10/20 00:38:55;;;;;;;1.50;1.20;;;;;;;16.58;100.00;96643.94;340060;28;4546;-77
2023/10/20 00:39:07;;;;;;;1.77;1.35;;;;;;;16.61;100.00;96642.78;336652;28;16387;-77
2023/10/20 00:39:19;;;;;;;2.45;1.58;;;;;;;16.55;100.00;96645.06;339338;28;4568;-77
2023/10/20 00:39:32;;;;;;;2.47;1.60;;;;;;;16.55;100.00;96649.47;339978;28;5101;-77
2023/10/20 00:39:44;;;;;;;2.42;1.58;;;;;;;16.57;100.00;96642.28;336467;28;18459;-77
2023/10/20 00:39:56;;;;;;;2.08;1.40;;;;;;;16.57;100.00;96647.50;339751;28;4587;-77
2023/10/20 00:40:09;;;;;;;1.75;1.40;;;;;;;16.59;100.00;96650.78;337253;28;18352;-77
2023/10/20 00:40:22;;;;;;;1.80;1.45;;;;;;;16.60;100.00;96647.22;336259;28;4579;-76
2023/10/20 00:40:34;;;;;;;1.83;1.42;;;;;;;16.61;100.00;96643.59;339223;28;4672;-76
2023/10/20 00:40:48;;;;;;;1.50;1.30;;;;;;;16.63;100.00;96646.88;339925;28;5477;-77
2023/10/20 00:41:00;;;;;;;1.65;1.33;;;;;;;16.65;100.00;96647.53;337367;28;17814;-77
2023/10/20 00:41:13;;;;;;;1.60;1.27;;;;;;;16.64;100.00;96638.03;338125;28;10522;-77
2023/10/20 00:41:25;;;;;;;1.95;1.30;;;;;;;16.64;100.00;96643.28;332181;28;17137;-77
2023/10/20 00:41:38;;;;;;;2.00;1.40;;;;;;;16.63;100.00;96641.63;336157;28;13181;-77
2023/10/20 00:41:50;;;;;;;2.08;1.50;;;;;;;16.62;100.00;96642.63;340490;28;5919;-77
2023/10/20 00:42:02;;;;;;;1.70;1.40;;;;;;;16.63;100.00;96641.63;341455;28;4520;-77
2023/10/20 00:42:14;;;;;;;1.75;1.40;;;;;;;16.63;100.00;96635.56;336902;28;17669;-77
2023/10/20 00:42:26;;;;;;;1.67;1.50;;;;;;;16.64;100.00;96645.06;339143;28;4671;-77
2023/10/20 00:42:38;;;;;;;1.88;1.58;;;;;;;16.66;100.00;96641.31;337201;28;17967;-77
2023/10/20 00:42:50;;;;;;;2.30;1.52;;;;;;;16.67;100.00;96650.00;335435;28;4935;-77
2023/10/20 00:43:03;;;;;;;2.50;1.60;;;;;;;16.65;100.00;96637.03;337767;28;4671;-77
2023/10/20 00:43:15;;;;;;;2.22;1.77;;;;;;;16.65;100.00;96644.09;339182;28;4927;-77
2023/10/20 00:43:37;;;;;;;2.03;1.70;;;;;;;16.69;100.00;96638.34;340709;28;5437;-77
2023/10/20 00:43:50;;;;;;;2.08;1.48;;;;;;;16.66;100.00;96638.69;336662;28;17646;-77
2023/10/20 00:44:03;;;;;;;2.13;1.60;;;;;;;16.67;100.00;96640.31;338380;28;5762;-76
2023/10/20 00:44:15;;;;;;;1.92;1.50;;;;;;;16.67;100.00;96637.69;335541;28;18178;-77
2023/10/20 00:44:27;;;;;;;2.22;1.50;;;;;;;16.67;100.00;96631.63;338571;28;5485;-77
2023/10/20 00:44:40;;;;;;;2.42;1.60;;;;;;;16.68;100.00;96634.09;337090;28;18245;-77
2023/10/20 00:44:53;;;;;;;2.20;1.42;;;;;;;16.68;100.00;96635.88;340144;28;4764;-77
2023/10/20 00:45:08;;;;;;;4.15;1.40;;;;;;;16.69;100.00;96640.97;336419;28;18048;-77
2023/10/20 00:45:20;;;;;;;4.28;1.58;;;;;;;16.70;100.00;96637.38;336841;28;17785;-77
2023/10/20 00:45:32;;;;;;;3.33;1.58;;;;;;;16.72;100.00;96639.81;339846;28;5028;-77
2023/10/20 00:45:45;;;;;;;2.22;1.60;;;;;;;16.72;100.00;96637.19;332204;28;12475;-77
2023/10/20 00:45:59;;;;;;;2.45;1.52;;;;;;;16.73;100.00;96644.91;339996;28;4504;-76
2023/10/20 00:46:11;;;;;;;2.10;1.30;;;;;;;16.74;100.00;96638.69;336396;28;17889;-77
2023/10/20 00:46:23;;;;;;;2.05;1.40;;;;;;;16.74;100.00;96640.47;339003;28;4699;-77
2023/10/20 00:46:35;;;;;;;1.77;1.60;;;;;;;16.75;100.00;96645.56;335511;28;17848;-77
2023/10/20 00:46:48;;;;;;;1.90;1.60;;;;;;;16.74;100.00;96638.69;336877;28;5602;-77
2023/10/20 00:47:00;;;;;;;2.25;1.52;;;;;;;16.75;100.00;96637.69;328626;28;19087;-77
2023/10/20 00:47:12;;;;;;;2.80;1.73;;;;;;;16.75;100.00;96637.69;335825;29;4734;-77
2023/10/20 00:47:25;;;;;;;3.03;2.00;;;;;;;16.77;100.00;96640.16;329739;28;5402;-77
2023/10/20 00:47:39;;;;;;;2.20;1.70;;;;;;;16.77;100.00;96635.72;337472;28;4641;-77
2023/10/20 00:47:51;;;;;;;1.50;1.30;;;;;;;16.77;100.00;96643.59;334571;28;18087;-77
2023/10/20 00:48:05;;;;;;;1.42;1.25;;;;;;;16.80;100.00;96641.63;333276;29;4872;-77
2023/10/20 00:48:18;;;;;;;2.25;1.42;;;;;;;16.81;100.00;96643.28;334786;29;5303;-77
2023/10/20 00:48:32;;;;;;;2.35;1.40;;;;;;;16.83;100.00;96641.34;333252;29;18013;-76
2023/10/20 00:48:45;;;;;;;1.67;1.35;;;;;;;16.82;100.00;96644.94;333408;29;18029;-77
2023/10/20 00:48:57;;;;;;;2.00;1.40;;;;;;;16.84;100.00;96642.97;336924;28;5867;-76
2023/10/20 00:49:11;;;;;;;2.13;1.50;;;;;;;16.84;100.00;96642.97;334655;28;18130;-76
2023/10/20 00:49:23;;;;;;;1.92;1.40;;;;;;;16.84;100.00;96638.56;336644;28;4662;-77
2023/10/20 00:49:36;;;;;;;1.90;1.30;;;;;;;16.86;100.00;96651.50;334820;28;17885;-77
2023/10/20 00:49:48;;;;;;;2.50;1.40;;;;;;;16.85;100.00;96634.16;337134;28;4690;-76
2023/10/20 00:50:00;;;;;;;2.83;1.50;;;;;;;16.85;100.00;96644.63;334391;28;13522;-76
2023/10/20 00:50:13;;;;;;;3.63;1.58;;;;;;;16.85;100.00;96642.00;338658;28;4855;-77
2023/10/20 00:50:25;;;;;;;5.22;1.60;;;;;;;16.85;100.00;96644.63;335637;28;16423;-76
2023/10/20 00:50:38;;;;;;;5.93;1.70;;;;;;;16.86;100.00;96638.38;339752;28;4563;-77
2023/10/20 00:50:50;;;;;;;2.83;1.60;;;;;;;16.87;100.00;96642.66;330560;28;4763;-77
2023/10/20 00:51:06;;;;;;;2.20;1.50;;;;;;;16.87;100.00;96638.22;338862;28;6140;-77
2023/10/20 00:51:19;;;;;;;1.98;1.40;;;;;;;16.85;100.00;96636.78;330756;28;17811;-76
2023/10/20 00:51:31;;;;;;;1.65;1.48;;;;;;;16.83;100.00;96636.91;336427;28;18231;-77
2023/10/20 00:51:43;;;;;;;1.85;1.60;;;;;;;16.85;100.00;96634.94;339467;28;4631;-77
2023/10/20 00:51:56;;;;;;;3.17;1.70;;;;;;;16.85;100.00;96637.56;336105;28;17994;-77
2023/10/20 00:52:09;;;;;;;3.17;1.50;;;;;;;16.85;100.00;96631.53;339856;28;4556;-77
2023/10/20 00:52:22;;;;;;;2.30;1.50;;;;;;;16.87;100.00;96633.00;336222;28;18136;-77
2023/10/20 00:52:37;;;;;;;2.50;1.58;;;;;;;16.88;100.00;96633.81;337970;28;13459;-77
2023/10/20 00:52:50;;;;;;;2.30;1.50;;;;;;;16.89;100.00;96630.22;335377;28;19053;-76
2023/10/20 00:53:03;;;;;;;2.03;1.40;;;;;;;16.91;100.00;96630.88;337331;28;18295;-77
2023/10/20 00:53:17;;;;;;;2.30;1.60;;;;;;;16.92;100.00;96627.25;334296;28;17843;-76
2023/10/20 00:53:29;;;;;;;3.17;1.95;;;;;;;16.90;100.00;96629.22;337461;28;4579;-76
2023/10/20 00:53:42;;;;;;;2.60;1.67;;;;;;;16.91;100.00;96628.25;334473;28;18243;-77
2023/10/20 00:53:56;;;;;;;2.15;1.33;;;;;;;16.86;100.00;96630.53;338480;28;4518;-77
2023/10/20 00:54:13;;;;;;;2.05;1.38;;;;;;;16.84;100.00;96622.84;335916;28;17886;-77
2023/10/20 00:54:25;;;;;;;2.28;1.60;;;;;;;16.78;100.00;96619.03;334742;28;17669;-77
2023/10/20 00:54:37;;;;;;;2.10;1.60;;;;;;;16.78;100.00;96626.06;334198;28;18002;-77
2023/10/20 00:54:50;;;;;;;2.33;1.60;;;;;;;16.75;100.00;96629.84;338629;28;5282;-77
2023/10/20 00:55:02;;;;;;;2.83;1.67;;;;;;;16.68;100.00;96622.78;335801;28;18602;-77
2023/10/20 00:55:15;;;;;;;3.42;1.60;;;;;;;16.67;100.00;96621.97;337744;28;4544;-77
2023/10/20 00:55:30;;;;;;;3.70;1.67;;;;;;;16.66;100.00;96619.50;334858;28;17735;-76
2023/10/20 00:55:42;;;;;;;2.05;1.50;;;;;;;16.62;100.00;96616.41;334319;28;18205;-76
2023/10/20 00:55:56;;;;;;;2.90;1.35;;;;;;;16.63;100.00;96615.41;338340;28;4689;-77
2023/10/20 00:56:09;;;;;;;2.72;1.33;;;;;;;16.63;100.00;96619.84;335360;28;17909;-76
2023/10/20 00:56:21;;;;;;;1.95;1.50;;;;;;;16.61;100.00;96617.38;338146;28;4794;-76
2023/10/20 00:56:33;;;;;;;1.83;1.50;;;;;;;16.60;100.00;96615.75;335228;28;18231;-77
2023/10/20 00:56:47;;;;;;;2.08;1.40;;;;;;;16.53;100.00;96614.72;336361;28;4685;-77
2023/10/20 00:56:59;;;;;;;2.33;1.40;;;;;;;16.51;100.00;96621.94;334456;28;17913;-76
2023/10/20 00:57:14;;;;;;;2.40;1.52;;;;;;;16.50;100.00;96617.66;333211;28;4517;-77
2023/10/20 00:57:27;;;;;;;1.98;1.50;;;;;;;16.50;100.00;96615.03;335285;28;18862;-76
2023/10/20 00:57:40;;;;;;;2.03;1.40;;;;;;;16.49;100.00;96614.22;337457;28;5742;-77
2023/10/20 00:57:53;;;;;;;1.98;1.23;;;;;;;16.51;100.00;96616.69;335173;28;16085;-77
2023/10/20 00:58:06;;;;;;;2.22;1.38;;;;;;;16.51;100.00;96611.44;337709;28;4492;-76
2023/10/20 00:58:18;;;;;;;2.30;1.55;;;;;;;16.52;100.00;96615.69;336365;28;17951;-77
2023/10/20 00:58:31;;;;;;;2.30;1.40;;;;;;;16.53;100.00;96605.06;338378;28;4534;-76
2023/10/20 00:58:43;;;;;;;2.42;1.42;;;;;;;16.56;100.00;96615.25;333423;28;4715;-76
2023/10/20 00:58:56;;;;;;;1.95;1.30;;;;;;;16.59;100.00;96608.84;338184;28;17356;-76
2023/10/20 00:59:08;;;;;;;1.80;1.20;;;;;;;16.60;100.00;96604.41;337124;28;13503;-76
2023/10/20 00:59:20;;;;;;;2.50;1.30;;;;;;;16.61;100.00;96606.88;338322;28;4660;-77
2023/10/20 00:59:32;;;;;;;2.13;1.20;;;;;;;16.64;100.00;96596.06;336327;28;5078;-77
2023/10/20 00:59:45;;;;;;;2.05;1.17;;;;;;;16.64;100.00;96611.81;339694;28;5593;-77
2023/10/20 00:59:57;;;;;;;1.83;1.17;;;;;;;16.64;100.00;96610.97;339415;28;4660;-77